Terminal Aerodrome Forecast
Issued by NWS

Home | Current Version | Previous Version | Text Only | Print | Product List | Glossary On
Versions: 1 2 3 4 5 6 7 8 9 10 11 12 13 14 15
000
FTUS45 KRIW 172300
TAFCPR
TAF
KCPR 172330Z 1800/1824 09010KT 4SM -RA BR BKN005 OVC025
     FM180130 07008KT P6SM -RA SCT015 OVC030
     FM180600 35007KT P6SM VCFG SCT003 BKN030
     FM181600 34008KT P6SM VCSH SCT020 BKN035
     FM181900 36013G21KT 5SM -RA BR SCT007 OVC015=

USA.gov is the U.S. government's official web portal to all federal, state and local government web resources and services.